Time;durP1;ratioP1;P1;durP2;ratioP2;P2;SDS_P1;SDS_P2;PMS_P1;PMS_P2;Temp;Humidity;BMP_temperature;BMP_pressure;BME280_temperature;BME280_humidity;BME280_pressure;Samples;Min_cycle;Max_cycle;Signal;HPM_P1;HPM_P2
2022/01/05 00:01:45;;;;;;;22.98;12.70;;;;;;;4.99;80.05;98430.63;2087698;85;31861;-66
2022/01/05 00:04:47;;;;;;;22.22;12.35;;;;;;;4.99;80.03;98414.70;2089192;85;33042;-64
2022/01/05 00:07:49;;;;;;;12.05;7.40;;;;;;;5.01;80.10;98416.32;2089208;85;30646;-65
2022/01/05 00:10:52;;;;;;;9.50;5.35;;;;;;;5.04;80.13;98424.59;2086645;85;28297;-64
2022/01/05 00:13:56;;;;;;;12.95;5.55;;;;;;;5.06;80.07;98415.20;2100843;84;29363;-64
2022/01/05 00:16:58;;;;;;;10.95;6.12;;;;;;;5.06;80.03;98417.38;2102840;84;31755;-64
2022/01/05 00:20:00;;;;;;;10.45;6.12;;;;;;;5.07;80.03;98424.88;2102986;84;34134;-64
2022/01/05 00:23:02;;;;;;;11.83;6.35;;;;;;;5.08;80.02;98434.55;2103238;84;29743;-65
2022/01/05 00:26:04;;;;;;;14.33;7.10;;;;;;;5.11;80.05;98431.73;2103690;84;28220;-66
2022/01/05 00:29:06;;;;;;;11.22;6.17;;;;;;;5.14;80.13;98431.53;2103426;84;28836;-65
2022/01/05 00:32:08;;;;;;;11.43;6.55;;;;;;;5.21;80.17;98436.05;2103275;84;31415;-65
2022/01/05 00:35:10;;;;;;;12.75;6.72;;;;;;;5.25;80.14;98437.55;2094794;84;33005;-66
2022/01/05 00:38:12;;;;;;;9.35;4.35;;;;;;;5.29;80.12;98434.66;2103720;84;30445;-66
2022/01/05 00:41:14;;;;;;;7.80;4.22;;;;;;;5.33;80.04;98434.83;2103407;84;27730;-66
2022/01/05 00:44:16;;;;;;;7.10;4.08;;;;;;;5.38;80.03;98441.20;2103533;84;29934;-66
2022/01/05 00:47:18;;;;;;;8.43;4.12;;;;;;;5.43;79.98;98442.28;2102672;84;32375;-64
2022/01/05 00:50:19;;;;;;;8.00;3.77;;;;;;;5.47;79.97;98444.66;2102819;83;32874;-65
2022/01/05 00:53:21;;;;;;;7.70;3.98;;;;;;;5.51;80.06;98442.67;2102473;82;30603;-65
2022/01/05 00:56:23;;;;;;;8.13;4.28;;;;;;;5.57;79.97;98442.77;2102376;84;27748;-65
2022/01/05 00:59:25;;;;;;;6.05;3.52;;;;;;;5.60;80.02;98439.48;2102466;83;29904;-65
2022/01/05 01:02:27;;;;;;;8.90;3.83;;;;;;;5.66;79.98;98430.30;2101885;84;30972;-66
2022/01/05 01:05:28;;;;;;;7.33;3.77;;;;;;;5.70;79.95;98431.83;2101829;84;32100;-65
2022/01/05 01:08:31;;;;;;;5.25;3.30;;;;;;;5.74;80.01;98438.64;2103068;84;29141;-65
2022/01/05 01:11:32;;;;;;;4.83;3.33;;;;;;;5.77;79.91;98441.13;2103166;82;27746;-66
2022/01/05 01:14:34;;;;;;;6.65;3.42;;;;;;;5.82;79.85;98442.66;2101759;84;29300;-64
2022/01/05 01:17:36;;;;;;;6.40;3.87;;;;;;;5.84;79.76;98447.41;2102590;84;32336;-65
2022/01/05 01:20:38;;;;;;;5.17;3.47;;;;;;;5.86;79.83;98445.03;2103509;84;34115;-65
2022/01/05 01:23:42;;;;;;;7.30;4.45;;;;;;;5.88;79.75;98455.55;2103546;84;30582;-65
2022/01/05 01:26:43;;;;;;;4.87;3.83;;;;;;;5.91;79.80;98454.91;2103345;84;28326;-65
2022/01/05 01:29:45;;;;;;;6.28;3.35;;;;;;;5.93;79.66;98457.01;2103245;83;28794;-65
2022/01/05 01:32:47;;;;;;;6.28;3.37;;;;;;;5.96;79.70;98458.61;2103082;84;31937;-65
2022/01/05 01:35:49;;;;;;;6.15;3.62;;;;;;;6.00;79.62;98455.32;2103560;84;33095;-65
2022/01/05 01:38:51;;;;;;;5.50;3.70;;;;;;;6.04;79.66;98467.00;2103097;84;30536;-65
2022/01/05 01:41:52;;;;;;;4.95;2.83;;;;;;;6.08;79.64;98467.20;2103598;84;27596;-65
2022/01/05 01:44:54;;;;;;;7.58;4.10;;;;;;;6.13;79.62;98464.25;2103397;84;28872;-65
2022/01/05 01:47:57;;;;;;;8.43;4.25;;;;;;;6.16;79.75;98470.72;2103002;84;31062;-64
2022/01/05 01:50:59;;;;;;;8.83;4.20;;;;;;;6.20;79.54;98468.75;2103445;84;33762;-64
2022/01/05 01:54:02;;;;;;;10.55;4.35;;;;;;;6.23;79.57;98467.20;2103580;84;29442;-63
2022/01/05 01:57:06;;;;;;;7.95;4.58;;;;;;;6.26;79.41;98464.85;2103607;84;27661;-64
2022/01/05 02:00:10;;;;;;;7.22;4.50;;;;;;;6.29;79.34;98453.55;2103386;84;29495;-64
2022/01/05 02:03:14;;;;;;;6.22;3.90;;;;;;;6.32;79.28;98452.03;2103461;84;32021;-65
2022/01/05 02:06:16;;;;;;;7.92;3.87;;;;;;;6.37;79.17;98439.77;2103438;84;33623;-65
2022/01/05 02:09:18;;;;;;;6.80;4.17;;;;;;;6.38;79.17;98443.65;2065238;84;30480;-65
2022/01/05 02:12:22;;;;;;;7.62;3.52;;;;;;;6.43;79.18;98436.73;2052245;86;27697;-65
2022/01/05 02:15:24;;;;;;;8.58;4.45;;;;;;;6.47;79.22;98433.40;2048890;86;29139;-65
2022/01/05 02:21:37;;;;;;;6.35;4.12;;;;;;;6.52;79.16;98440.13;2048815;86;32899;-65
2022/01/05 02:24:45;;;;;;;9.10;4.33;;;;;;;6.52;78.90;98446.78;2048186;86;29991;-64
2022/01/05 02:27:46;;;;;;;7.25;4.60;;;;;;;6.58;79.14;98469.97;2047496;86;27593;-65
2022/01/05 02:30:53;;;;;;;8.47;3.97;;;;;;;6.59;78.83;98455.72;2049137;86;29492;-65
2022/01/05 02:33:55;;;;;;;5.30;3.90;;;;;;;6.61;78.94;98452.48;2049179;86;31421;-65
2022/01/05 02:36:57;;;;;;;9.85;4.53;;;;;;;6.61;78.90;98445.84;2097430;83;33334;-65
2022/01/05 02:39:58;;;;;;;9.95;4.92;;;;;;;6.62;78.70;98441.73;2125530;83;30481;-65
2022/01/05 02:43:01;;;;;;;6.65;3.80;;;;;;;6.66;78.96;98441.92;2125596;83;27617;-65
2022/01/05 02:46:12;;;;;;;6.28;4.37;;;;;;;6.69;79.00;98432.42;2125606;83;29073;-64
2022/01/05 02:49:14;;;;;;;9.23;4.22;;;;;;;6.70;78.64;98422.63;2125609;83;31023;-65
2022/01/05 02:52:16;;;;;;;7.67;4.15;;;;;;;6.74;78.76;98420.15;2125247;83;34158;-65
2022/01/05 02:55:19;;;;;;;9.38;5.15;;;;;;;6.77;78.66;98413.77;2125155;83;27720;-64
2022/01/05 02:58:21;;;;;;;9.53;4.42;;;;;;;6.77;78.55;98411.97;2125617;83;27719;-65
2022/01/05 03:01:23;;;;;;;7.60;4.30;;;;;;;6.79;78.75;98419.36;2125276;83;29934;-64
2022/01/05 03:04:26;;;;;;;6.87;4.67;;;;;;;6.81;78.80;98419.27;2125498;83;31536;-66
2022/01/05 03:07:28;;;;;;;7.00;5.05;;;;;;;6.84;78.72;98434.56;2103662;83;33391;-65
2022/01/05 03:10:30;;;;;;;7.58;4.58;;;;;;;6.86;78.71;98434.94;2098220;84;29627;-65
2022/01/05 03:13:31;;;;;;;6.53;5.00;;;;;;;6.87;78.63;98430.83;2096004;83;27690;-65
2022/01/05 03:16:33;;;;;;;4.67;4.17;;;;;;;6.90;78.84;98440.45;2087843;85;29765;-64
2022/01/05 03:19:35;;;;;;;7.10;4.67;;;;;;;6.91;78.79;98445.66;2088549;85;31981;-65
2022/01/05 03:22:38;;;;;;;8.78;5.17;;;;;;;6.92;78.64;98443.88;2087852;84;34192;-64
2022/01/05 03:25:43;;;;;;;7.33;5.08;;;;;;;6.92;78.62;98433.22;2087994;84;29290;-65
2022/01/05 03:28:45;;;;;;;9.25;4.90;;;;;;;6.90;78.21;98439.12;2088214;85;27709;-64
2022/01/05 03:31:47;;;;;;;8.93;5.28;;;;;;;6.89;78.09;98440.07;2088206;85;30180;-63
2022/01/05 03:34:51;;;;;;;7.03;5.03;;;;;;;6.89;78.30;98444.91;2088144;85;32197;-64
2022/01/05 03:37:52;;;;;;;9.88;5.28;;;;;;;6.91;78.42;98446.99;2095859;84;34252;-63
2022/01/05 03:40:54;;;;;;;9.00;5.37;;;;;;;6.92;78.32;98435.88;2096768;84;29879;-63
2022/01/05 03:43:57;;;;;;;8.68;4.87;;;;;;;6.91;78.21;98437.67;2096816;84;27706;-62
2022/01/05 03:46:59;;;;;;;8.08;4.87;;;;;;;6.91;78.29;98442.16;2096740;84;29658;-62
2022/01/05 03:50:01;;;;;;;8.05;5.00;;;;;;;6.93;78.21;98458.89;2096725;84;31884;-62
2022/01/05 03:53:04;;;;;;;10.00;5.15;;;;;;;6.91;78.07;98458.97;2096714;84;33409;-64
2022/01/05 03:56:06;;;;;;;7.78;4.85;;;;;;;6.89;77.74;98452.05;2096072;84;29361;-64
2022/01/05 03:59:07;;;;;;;7.17;5.17;;;;;;;6.90;77.84;98451.09;2095836;83;27755;-63
2022/01/05 04:02:09;;;;;;;8.35;4.78;;;;;;;6.89;77.74;98430.27;2094845;84;29047;-64
2022/01/05 04:05:11;;;;;;;7.00;4.62;;;;;;;6.90;77.89;98427.98;2096397;84;30988;-64
2022/01/05 04:08:14;;;;;;;7.47;4.85;;;;;;;6.90;77.77;98427.98;2096965;84;34125;-64
2022/01/05 04:11:15;;;;;;;10.60;4.80;;;;;;;6.90;77.81;98422.66;2096887;84;30103;-64
2022/01/05 04:14:17;;;;;;;9.13;5.03;;;;;;;6.92;77.91;98428.73;2114662;83;27804;-63
2022/01/05 04:17:19;;;;;;;7.62;4.37;;;;;;;6.92;77.96;98436.72;2131369;83;28191;-64
2022/01/05 04:20:21;;;;;;;4.87;4.17;;;;;;;6.93;77.74;98437.59;2131669;83;32182;-63
2022/01/05 04:23:23;;;;;;;9.50;4.67;;;;;;;6.93;77.82;98430.94;2131351;83;33854;-64
2022/01/05 04:26:25;;;;;;;9.65;5.60;;;;;;;6.91;77.91;98420.38;2131395;83;30231;-64
2022/01/05 04:29:27;;;;;;;10.13;6.40;;;;;;;6.90;77.85;98417.33;2131882;83;27972;-64
2022/01/05 04:32:29;;;;;;;9.00;6.05;;;;;;;6.91;77.75;98416.88;2131451;83;29914;-64
2022/01/05 04:35:31;;;;;;;11.97;7.00;;;;;;;6.90;77.81;98419.16;2124217;83;31397;-62
2022/01/05 04:38:32;;;;;;;8.58;5.85;;;;;;;6.89;77.51;98418.28;2043461;87;34126;-63
2022/01/05 04:41:34;;;;;;;7.87;5.90;;;;;;;6.87;77.55;98415.36;2024344;87;29477;-62
2022/01/05 04:44:36;;;;;;;8.80;6.20;;;;;;;6.87;77.75;98422.85;2036210;87;27605;-65
2022/01/05 04:47:38;;;;;;;9.95;6.67;;;;;;;6.87;77.45;98424.67;2017100;87;28711;-64
2022/01/05 04:50:39;;;;;;;10.30;7.60;;;;;;;6.87;77.23;98419.34;2033647;86;31839;-63
2022/01/05 04:53:41;;;;;;;10.58;7.20;;;;;;;6.84;77.30;98421.25;2043944;86;34108;-64
2022/01/05 04:56:43;;;;;;;10.00;6.42;;;;;;;6.87;77.42;98418.02;2029071;86;29769;-64
2022/01/05 04:59:45;;;;;;;10.08;8.35;;;;;;;6.88;77.47;98421.90;2027297;87;27737;-64
2022/01/05 05:02:48;;;;;;;11.83;8.13;;;;;;;6.88;77.30;98447.19;2095649;83;29863;-61
2022/01/05 05:05:50;;;;;;;11.43;8.45;;;;;;;6.89;77.10;98444.06;2095594;83;30882;-64
2022/01/05 05:08:52;;;;;;;13.58;8.93;;;;;;;6.88;77.08;98428.55;2096082;83;32818;-63
2022/01/05 05:11:53;;;;;;;10.53;8.18;;;;;;;6.88;77.11;98442.35;2131857;83;29864;-62
2022/01/05 05:14:55;;;;;;;13.08;8.90;;;;;;;6.87;76.96;98442.81;2131820;82;28203;-63
2022/01/05 05:17:57;;;;;;;11.85;8.78;;;;;;;6.88;77.06;98429.88;2133901;83;29701;-65
2022/01/05 05:20:59;;;;;;;13.13;8.10;;;;;;;6.87;76.84;98434.83;2133488;83;30427;-65
2022/01/05 05:24:01;;;;;;;8.60;7.72;;;;;;;6.84;76.66;98417.26;2133208;83;34338;-64
2022/01/05 05:27:05;;;;;;;9.68;8.28;;;;;;;6.83;76.71;98419.54;2101269;83;29413;-63
2022/01/05 05:30:08;;;;;;;11.97;8.43;;;;;;;6.84;76.83;98428.40;2100681;84;27673;-64
2022/01/05 05:33:10;;;;;;;11.40;9.08;;;;;;;6.84;76.70;98428.40;2100817;84;29528;-63
2022/01/05 05:36:12;;;;;;;10.63;8.75;;;;;;;6.83;76.67;98422.20;2100558;84;32161;-65
2022/01/05 05:39:13;;;;;;;12.30;8.50;;;;;;;6.83;76.55;98426.20;2100715;84;34275;-63
2022/01/05 05:42:15;;;;;;;10.70;7.97;;;;;;;6.83;76.59;98428.86;2101079;84;29834;-64
2022/01/05 05:45:17;;;;;;;11.55;9.38;;;;;;;6.84;76.59;98419.92;2100918;84;28205;-64
2022/01/05 05:48:19;;;;;;;12.10;9.75;;;;;;;6.84;76.41;98421.25;2100495;84;29516;-64
2022/01/05 05:51:21;;;;;;;9.70;7.70;;;;;;;6.84;76.47;98424.41;2100470;84;31165;-63
2022/01/05 05:54:23;;;;;;;9.33;6.80;;;;;;;6.83;76.46;98403.57;2098944;84;32806;-64
2022/01/05 05:57:24;;;;;;;10.72;6.42;;;;;;;6.81;76.20;98403.30;2099866;83;30221;-63
2022/01/05 06:00:26;;;;;;;11.10;7.50;;;;;;;6.79;76.40;98410.53;2100440;84;27728;-65
2022/01/05 06:03:28;;;;;;;10.13;7.40;;;;;;;6.79;76.37;98405.20;2098995;84;28857;-64
2022/01/05 06:06:30;;;;;;;12.82;7.25;;;;;;;6.76;76.29;98396.95;2100153;84;30859;-64
2022/01/05 06:09:32;;;;;;;11.95;7.37;;;;;;;6.75;76.41;98408.55;2100076;84;32773;-62
2022/01/05 06:12:33;;;;;;;9.25;7.00;;;;;;;6.74;76.36;98409.50;2100250;84;30473;-64
2022/01/05 06:15:35;;;;;;;11.48;7.72;;;;;;;6.74;76.37;98411.30;2098139;84;27630;-64
2022/01/05 06:18:37;;;;;;;15.13;9.20;;;;;;;6.72;76.42;98407.41;2096949;84;29317;-65
2022/01/05 06:21:39;;;;;;;10.15;7.28;;;;;;;6.71;76.40;98417.68;2096798;84;31624;-65
2022/01/05 06:24:42;;;;;;;10.43;7.62;;;;;;;6.70;76.42;98418.63;2096275;84;34132;-65
2022/01/05 06:27:44;;;;;;;9.38;6.78;;;;;;;6.68;76.30;98418.74;2097568;83;29729;-64
2022/01/05 06:30:46;;;;;;;9.98;7.87;;;;;;;6.66;76.33;98415.78;2096938;83;27678;-63
2022/01/05 06:33:48;;;;;;;13.32;7.72;;;;;;;6.63;76.28;98415.97;2096775;83;28495;-63
2022/01/05 06:36:49;;;;;;;8.60;7.08;;;;;;;6.61;76.24;98427.22;2096950;84;32222;-65
2022/01/05 06:39:51;;;;;;;10.45;7.47;;;;;;;6.58;76.30;98427.41;2097139;84;33897;-63
2022/01/05 06:42:53;;;;;;;10.03;7.40;;;;;;;6.57;76.32;98427.02;2096794;84;30173;-64
2022/01/05 06:45:55;;;;;;;10.78;7.58;;;;;;;6.55;76.41;98427.10;2097021;84;27703;-64
2022/01/05 06:48:57;;;;;;;10.85;7.85;;;;;;;6.57;76.53;98436.34;2097064;84;29571;-62
2022/01/05 06:51:58;;;;;;;13.32;8.53;;;;;;;6.56;76.53;98435.95;2097120;84;32377;-62
2022/01/05 06:55:00;;;;;;;14.65;9.23;;;;;;;6.55;76.60;98436.41;2097403;84;33320;-63
2022/01/05 06:58:02;;;;;;;11.65;8.68;;;;;;;6.56;76.69;98435.95;2097274;84;30487;-64
2022/01/05 07:01:04;;;;;;;16.57;10.95;;;;;;;6.56;76.78;98438.13;2096508;84;27640;-64
2022/01/05 07:04:06;;;;;;;16.45;11.43;;;;;;;6.57;76.79;98437.66;2096820;84;28648;-63
2022/01/05 07:07:07;;;;;;;17.65;12.33;;;;;;;6.57;76.83;98436.34;2097192;84;31678;-63
2022/01/05 07:10:11;;;;;;;16.15;11.38;;;;;;;6.58;77.03;98430.06;2097053;84;33411;-62
2022/01/05 07:13:13;;;;;;;15.65;11.38;;;;;;;6.59;76.95;98435.27;2097293;83;30197;-62
2022/01/05 07:16:14;;;;;;;20.00;12.80;;;;;;;6.60;77.04;98433.48;2098806;84;27686;-63
2022/01/05 07:19:16;;;;;;;16.82;11.88;;;;;;;6.59;77.05;98437.09;2100821;84;29085;-62
2022/01/05 07:22:18;;;;;;;20.40;12.95;;;;;;;6.59;77.10;98434.44;2092616;83;31412;-61
2022/01/05 07:25:20;;;;;;;19.00;13.03;;;;;;;6.59;77.22;98433.11;2085649;84;34146;-64
2022/01/05 07:28:21;;;;;;;18.27;10.65;;;;;;;6.59;77.33;98431.28;2100447;84;30544;-63
2022/01/05 07:31:23;;;;;;;17.32;9.38;;;;;;;6.61;77.43;98431.20;2100673;84;27749;-63
2022/01/05 07:34:25;;;;;;;13.70;9.00;;;;;;;6.63;77.49;98434.59;2100500;84;29938;-63
2022/01/05 07:37:27;;;;;;;12.20;8.28;;;;;;;6.62;77.40;98433.75;2100423;84;32294;-64
2022/01/05 07:40:29;;;;;;;11.85;9.58;;;;;;;6.62;77.37;98435.09;2100844;84;34131;-63
2022/01/05 07:43:31;;;;;;;12.53;9.75;;;;;;;6.64;77.44;98436.30;2100479;84;30754;-62
2022/01/05 07:46:33;;;;;;;14.15;10.00;;;;;;;6.64;77.50;98426.53;2100536;84;27680;-64
2022/01/05 07:49:37;;;;;;;14.70;10.23;;;;;;;6.67;77.53;98430.34;2100452;84;29912;-64
2022/01/05 07:52:39;;;;;;;11.68;9.05;;;;;;;6.69;77.52;98426.23;2100658;84;31956;-63
2022/01/05 07:55:41;;;;;;;13.93;9.68;;;;;;;6.68;77.44;98432.05;2100653;84;34231;-63
2022/01/05 07:58:42;;;;;;;14.43;10.23;;;;;;;6.70;77.48;98433.27;2100667;84;30434;-63
2022/01/05 08:01:45;;;;;;;17.42;11.12;;;;;;;6.71;77.53;98427.00;2100633;84;27628;-63
2022/01/05 08:04:49;;;;;;;18.45;11.73;;;;;;;6.73;77.40;98429.55;2101093;84;30268;-64
2022/01/05 08:07:50;;;;;;;21.02;12.75;;;;;;;6.75;77.54;98424.52;2100583;84;32280;-64
2022/01/05 08:10:52;;;;;;;23.10;14.55;;;;;;;6.76;77.58;98438.20;2100301;83;34003;-64
2022/01/05 08:13:53;;;;;;;25.20;15.45;;;;;;;6.79;77.54;98443.80;2099513;84;30676;-64
2022/01/05 08:16:55;;;;;;;21.68;14.13;;;;;;;6.78;77.51;98440.30;2100355;84;27876;-64
2022/01/05 08:19:57;;;;;;;20.40;14.28;;;;;;;6.80;77.51;98431.71;2100948;84;29933;-64
2022/01/05 08:22:59;;;;;;;23.85;14.98;;;;;;;6.80;77.41;98428.20;2100344;84;31918;-64
2022/01/05 08:26:01;;;;;;;22.02;14.20;;;;;;;6.81;77.39;98438.74;2100863;84;33373;-63
2022/01/05 08:29:03;;;;;;;22.93;14.10;;;;;;;6.81;77.37;98440.08;2100543;84;29747;-63
2022/01/05 08:32:07;;;;;;;21.80;13.68;;;;;;;6.81;77.40;98444.06;2101193;84;27735;-63
2022/01/05 08:35:10;;;;;;;24.63;14.75;;;;;;;6.84;77.42;98463.00;2100838;84;29875;-64
2022/01/05 08:38:13;;;;;;;16.32;12.55;;;;;;;6.84;77.35;98458.52;2100720;84;31932;-64
2022/01/05 08:41:15;;;;;;;17.05;10.55;;;;;;;6.86;77.34;98459.77;2100947;84;33349;-63
2022/01/05 08:44:16;;;;;;;15.45;10.82;;;;;;;6.88;77.33;98458.33;2100798;84;30999;-63
2022/01/05 08:47:18;;;;;;;15.23;11.25;;;;;;;6.88;77.41;98459.16;2100843;84;27632;-63
2022/01/05 08:50:23;;;;;;;14.73;10.38;;;;;;;6.91;77.44;98458.97;2100809;84;28408;-63
2022/01/05 08:53:26;;;;;;;15.88;9.90;;;;;;;6.92;77.47;98450.03;2101128;84;31039;-63
2022/01/05 08:56:28;;;;;;;15.70;10.13;;;;;;;6.94;77.40;98452.61;2100516;84;33814;-64
2022/01/05 08:59:30;;;;;;;18.92;10.35;;;;;;;6.95;77.46;98448.52;2100911;84;30675;-63
2022/01/05 09:02:32;;;;;;;15.10;10.20;;;;;;;6.96;77.28;98444.02;2100773;84;27713;-63
2022/01/05 09:05:34;;;;;;;13.22;9.43;;;;;;;6.97;77.37;98450.59;2100569;84;29939;-62
2022/01/05 09:08:38;;;;;;;15.35;9.63;;;;;;;6.99;77.35;98460.68;2100565;84;31155;-63
2022/01/05 09:11:39;;;;;;;14.55;10.30;;;;;;;7.01;77.30;98460.56;2100876;84;33071;-64
2022/01/05 09:14:41;;;;;;;18.45;10.35;;;;;;;7.03;77.27;98467.14;2101021;84;29119;-63
2022/01/05 09:17:43;;;;;;;14.18;9.85;;;;;;;7.03;77.23;98449.84;2103179;84;28259;-63
2022/01/05 09:20:45;;;;;;;19.77;10.28;;;;;;;7.05;77.33;98457.22;2103076;84;30060;-63
2022/01/05 09:23:47;;;;;;;14.98;10.13;;;;;;;7.07;77.32;98453.98;2103229;84;32391;-62
2022/01/05 09:26:49;;;;;;;17.85;12.58;;;;;;;7.10;77.31;98465.77;2103623;84;33338;-64
2022/01/05 09:29:51;;;;;;;22.45;13.22;;;;;;;7.13;77.44;98473.07;2103543;84;30115;-64
2022/01/05 09:32:53;;;;;;;19.80;13.25;;;;;;;7.15;77.41;98468.50;2103734;84;27628;-63
2022/01/05 09:36:03;;;;;;;18.75;12.35;;;;;;;7.18;77.47;98466.60;2103297;84;28119;-62
2022/01/05 09:42:19;;;;;;;21.52;14.40;;;;;;;7.20;77.42;98462.03;2102183;83;34188;-63
2022/01/05 09:45:23;;;;;;;20.05;11.48;;;;;;;7.22;77.50;98464.96;2102031;84;30552;-64
2022/01/05 09:49:07;;;;;;;17.50;8.78;;;;;;;7.24;77.50;98460.88;2102366;84;27649;-63
2022/01/05 09:52:10;;;;;;;9.00;5.25;;;;;;;7.28;77.54;98459.24;2124929;83;28916;-64
2022/01/05 09:55:15;;;;;;;6.45;3.72;;;;;;;7.31;77.29;98462.17;2125051;83;31207;-63
2022/01/05 09:58:20;;;;;;;4.92;2.95;;;;;;;7.35;77.17;98467.68;2138892;83;34736;-63
2022/01/05 10:01:25;;;;;;;5.92;2.83;;;;;;;7.39;77.29;98486.97;2131881;83;29291;-64
2022/01/05 10:04:27;;;;;;;4.80;2.70;;;;;;;7.38;77.05;98479.47;2103475;84;27713;-63
2022/01/05 10:07:29;;;;;;;4.67;2.35;;;;;;;7.40;76.96;98460.70;2101738;82;28673;-63
2022/01/05 10:10:31;;;;;;;33.08;20.48;;;;;;;7.43;77.11;98464.05;2119316;83;32251;-63
2022/01/05 10:13:33;;;;;;;9.93;6.33;;;;;;;7.49;76.86;98469.90;2079420;84;33033;-63
2022/01/05 10:16:35;;;;;;;4.45;2.80;;;;;;;7.48;76.64;98481.52;2057805;86;30513;-63
2022/01/05 10:19:38;;;;;;;3.22;2.27;;;;;;;7.50;76.58;98484.94;2052049;86;27671;-63
2022/01/05 10:22:45;;;;;;;3.85;2.33;;;;;;;7.49;76.48;98481.43;2052008;86;28843;-63
2022/01/05 10:25:47;;;;;;;5.03;2.42;;;;;;;7.50;76.48;98482.27;2039588;86;31054;-62
2022/01/05 10:28:50;;;;;;;5.08;2.50;;;;;;;7.48;76.31;98486.38;2023509;87;34285;-62
2022/01/05 10:31:55;;;;;;;5.25;2.58;;;;;;;7.43;76.15;98497.81;2020002;88;29341;-63
2022/01/05 10:35:19;;;;;;;7.35;3.55;;;;;;;7.35;76.18;98502.31;2020717;88;27734;-62
2022/01/05 10:38:24;;;;;;;8.75;5.28;;;;;;;7.27;76.26;98527.28;1988580;89;29218;-63
2022/01/05 10:41:30;;;;;;;5.45;3.30;;;;;;;7.14;76.13;98555.16;2016062;87;31845;-62
2022/01/05 10:44:31;;;;;;;5.62;3.45;;;;;;;6.95;75.41;98560.32;2060210;86;32979;-62
2022/01/05 10:47:34;;;;;;;6.65;4.10;;;;;;;6.79;75.43;98559.08;2029607;86;30459;-63
2022/01/05 10:50:39;;;;;;;7.17;4.00;;;;;;;6.65;75.30;98579.91;2019172;87;27801;-63
2022/01/05 10:53:42;;;;;;;12.37;5.40;;;;;;;6.48;75.31;98577.42;2019032;88;28884;-63
2022/01/05 10:56:48;;;;;;;9.73;4.95;;;;;;;6.37;75.20;98574.08;1976503;88;31057;-64
2022/01/05 10:59:55;;;;;;;6.87;4.30;;;;;;;6.25;75.19;98595.61;2010042;86;33051;-63
2022/01/05 11:02:56;;;;;;;5.28;3.17;;;;;;;6.10;75.12;98581.44;2012328;86;29633;-62
2022/01/05 11:06:13;;;;;;;4.47;3.25;;;;;;;6.03;75.16;98601.34;2017186;86;27720;-62
2022/01/05 11:09:18;;;;;;;6.47;4.40;;;;;;;5.98;75.27;98614.87;2017457;86;29964;-63
2022/01/05 11:12:19;;;;;;;8.70;5.25;;;;;;;5.91;75.29;98619.69;2016929;86;32568;-62
2022/01/05 11:15:33;;;;;;;9.70;5.55;;;;;;;5.81;75.24;98615.83;2016367;86;34348;-65
2022/01/05 11:18:35;;;;;;;9.35;4.35;;;;;;;5.67;75.16;98600.70;2050043;84;29390;-64
2022/01/05 11:21:41;;;;;;;8.83;4.83;;;;;;;5.60;75.44;98601.98;2044405;84;27754;-63
2022/01/05 11:24:46;;;;;;;7.42;5.03;;;;;;;5.58;75.58;98622.00;2057097;85;28738;-64
2022/01/05 11:27:48;;;;;;;8.15;3.80;;;;;;;5.59;75.67;98633.02;2063408;84;31044;-63
2022/01/05 11:30:54;;;;;;;11.88;5.53;;;;;;;5.62;75.51;98630.19;2058622;84;33623;-63
2022/01/05 11:33:56;;;;;;;14.20;6.20;;;;;;;5.58;75.34;98649.89;2055492;84;29351;-63
2022/01/05 11:37:01;;;;;;;13.45;5.12;;;;;;;5.53;75.06;98666.55;2043531;84;28418;-62
2022/01/05 11:40:05;;;;;;;;;;;;;;;5.47;75.20;98675.72;2033555;85;29738;-63
2022/01/05 11:43:15;;;;;;;11.97;6.58;;;;;;;5.43;75.01;98681.28;2054625;85;31062;-63
2022/01/05 11:46:25;;;;;;;15.15;6.22;;;;;;;5.36;75.02;98682.09;2062465;84;33926;-65
2022/01/05 11:49:27;;;;;;;13.50;5.42;;;;;;;5.34;75.08;98682.64;2051457;85;29342;-63
2022/01/05 11:52:58;;;;;;;20.48;7.37;;;;;;;5.29;75.03;98684.23;2049108;86;27756;-63
2022/01/05 11:56:05;;;;;;;13.85;7.10;;;;;;;5.25;75.11;98682.67;2046408;86;30144;-62
2022/01/05 11:59:21;;;;;;;13.62;6.55;;;;;;;5.22;75.06;98673.54;2021312;88;31898;-63
2022/01/05 12:02:23;;;;;;;11.78;5.17;;;;;;;5.20;75.11;98671.44;2020115;88;34274;-63
2022/01/05 12:05:25;;;;;;;17.80;6.97;;;;;;;5.18;74.99;98677.29;2022917;87;29709;-64
2022/01/05 12:08:44;;;;;;;14.45;6.00;;;;;;;5.14;75.02;98696.52;2021269;87;27645;-64
2022/01/05 12:11:47;;;;;;;17.17;6.20;;;;;;;5.14;75.16;98703.60;2029941;87;28685;-64
2022/01/05 12:14:49;;;;;;;15.00;7.67;;;;;;;5.07;74.78;98699.58;2027598;87;32364;-63
2022/01/05 12:18:00;;;;;;;13.28;6.00;;;;;;;5.04;75.01;98682.48;2031088;86;34179;-63
2022/01/05 12:21:02;;;;;;;14.40;5.50;;;;;;;5.01;75.08;98699.44;2072316;85;30178;-63
2022/01/05 12:24:05;;;;;;;13.93;4.80;;;;;;;4.99;75.12;98703.97;2085303;85;27816;-62
2022/01/05 12:27:26;;;;;;;10.38;4.62;;;;;;;4.98;75.16;98704.91;2090630;84;28692;-62
2022/01/05 12:30:35;;;;;;;9.78;3.33;;;;;;;4.99;75.38;98709.27;2063713;86;32342;-63
2022/01/05 12:33:49;;;;;;;9.85;3.75;;;;;;;4.96;75.18;98719.59;2064156;86;34293;-63
2022/01/05 12:36:51;;;;;;;5.80;2.87;;;;;;;4.92;75.01;98708.73;2064499;86;29378;-62
2022/01/05 12:39:56;;;;;;;5.47;2.40;;;;;;;4.85;74.97;98723.25;2063899;86;27624;-62
2022/01/05 12:43:16;;;;;;;8.05;3.15;;;;;;;4.79;75.04;98718.28;2063761;86;28711;-62
2022/01/05 12:46:42;;;;;;;9.28;3.40;;;;;;;4.70;74.93;98716.95;2063986;86;32030;-62
2022/01/05 12:49:43;;;;;;;8.45;2.72;;;;;;;4.65;75.22;98706.55;2064102;86;33750;-62
2022/01/05 12:52:52;;;;;;;8.60;2.77;;;;;;;4.61;75.36;98703.70;2064164;86;29720;-63
2022/01/05 12:56:10;;;;;;;8.20;2.50;;;;;;;4.59;75.27;98716.62;2063812;85;27838;-63
2022/01/05 12:59:36;;;;;;;4.60;2.00;;;;;;;4.55;75.38;98711.95;2062549;86;28907;-62
2022/01/05 13:02:50;;;;;;;7.47;2.37;;;;;;;4.51;75.16;98720.98;2031947;87;31100;-61
2022/01/05 13:06:30;;;;;;;3.60;2.35;;;;;;;4.45;75.23;98722.64;2011438;87;33401;-64
2022/01/05 13:09:39;;;;;;;5.90;2.30;;;;;;;4.44;75.44;98719.59;2032115;87;29458;-63
2022/01/05 13:12:41;;;;;;;7.08;2.85;;;;;;;4.41;75.53;98720.59;2031643;85;28310;-63
2022/01/05 13:15:44;;;;;;;5.90;2.33;;;;;;;4.41;75.58;98713.51;2032039;87;29994;-63
2022/01/05 13:18:50;;;;;;;4.85;2.10;;;;;;;4.40;75.60;98709.14;2064618;86;31430;-62
2022/01/05 13:21:53;;;;;;;7.83;2.08;;;;;;;4.42;75.43;98718.33;2066962;86;33762;-61
2022/01/05 13:25:16;;;;;;;5.65;2.17;;;;;;;4.45;75.57;98718.66;2066854;86;29330;-62
2022/01/05 13:28:16;;;;;;;10.95;2.87;;;;;;;4.47;75.56;98724.75;2095536;84;27656;-63
2022/01/05 13:31:19;;;;;;;5.67;2.40;;;;;;;4.49;75.46;98720.20;2102879;84;28675;-63
2022/01/05 13:34:36;;;;;;;10.05;3.05;;;;;;;4.49;75.23;98731.69;2101419;84;31101;-62
2022/01/05 13:37:55;;;;;;;6.60;2.47;;;;;;;4.47;75.16;98733.55;2073835;84;33752;-63
2022/01/05 13:40:59;;;;;;;6.25;2.75;;;;;;;4.43;75.14;98737.77;2096487;83;29333;-62
2022/01/05 13:44:01;;;;;;;8.63;3.00;;;;;;;4.40;75.19;98723.72;2096525;84;27676;-64
2022/01/05 13:47:07;;;;;;;9.63;2.80;;;;;;;4.37;75.08;98733.63;2096342;84;30084;-63
2022/01/05 13:50:17;;;;;;;7.00;2.95;;;;;;;4.35;75.23;98728.38;2096413;84;32082;-62
2022/01/05 13:53:28;;;;;;;9.95;3.40;;;;;;;4.37;75.32;98729.66;2095944;84;32568;-62
2022/01/05 13:56:41;;;;;;;8.93;3.12;;;;;;;4.35;75.05;98735.50;2096554;84;31007;-63
2022/01/05 13:59:45;;;;;;;9.08;4.30;;;;;;;4.30;75.06;98746.33;2097010;84;27654;-63
2022/01/05 14:02:47;;;;;;;10.48;4.72;;;;;;;4.26;75.07;98768.13;2097125;84;29306;-65
2022/01/05 14:05:52;;;;;;;13.38;4.75;;;;;;;4.23;75.18;98774.06;2097191;84;31024;-62
2022/01/05 14:09:01;;;;;;;14.03;4.15;;;;;;;4.23;75.35;98771.41;2096333;84;34191;-61
2022/01/05 14:12:04;;;;;;;7.62;3.80;;;;;;;4.20;75.07;98782.16;2096730;83;29391;-61
2022/01/05 14:15:09;;;;;;;11.25;4.00;;;;;;;4.16;75.07;98777.47;2094768;84;28075;-62
2022/01/05 14:18:14;;;;;;;6.58;2.55;;;;;;;4.12;74.88;98785.17;2055040;85;29573;-61
2022/01/05 14:21:27;;;;;;;11.12;3.50;;;;;;;4.05;74.75;98781.95;2095416;84;32052;-61
2022/01/05 14:24:37;;;;;;;8.48;3.58;;;;;;;4.00;74.77;98776.48;2096489;84;33073;-62
2022/01/05 14:27:43;;;;;;;12.63;3.92;;;;;;;3.93;74.64;98778.57;2096619;84;29359;-62
2022/01/05 14:30:58;;;;;;;13.28;3.80;;;;;;;3.85;74.80;98786.00;2096594;84;27644;-61
2022/01/05 14:34:02;;;;;;;12.17;3.93;;;;;;;3.77;74.56;98795.63;2096863;84;29544;-61
2022/01/05 14:37:07;;;;;;;13.10;3.50;;;;;;;3.67;74.53;98798.31;2096829;84;32051;-62